createdAt,value
2023-01-09T00:02:04.437Z,33.77
2023-01-09T00:04:32.271Z,31.40
2023-01-09T00:06:59.799Z,33.90
2023-01-09T00:09:27.763Z,36.23
2023-01-09T00:11:55.852Z,31.40
2023-01-09T00:14:24.044Z,30.43
2023-01-09T00:16:56.045Z,33.33
2023-01-09T00:19:23.640Z,32.33
2023-01-09T00:21:51.209Z,33.00
2023-01-09T00:24:18.722Z,34.80
2023-01-09T00:26:46.275Z,36.10
2023-01-09T00:29:13.788Z,31.27
2023-01-09T00:31:41.328Z,38.87
2023-01-09T00:34:11.285Z,32.67
2023-01-09T00:36:38.797Z,37.20
2023-01-09T00:39:06.997Z,34.70
2023-01-09T00:41:38.505Z,31.93
2023-01-09T00:44:10.566Z,36.03
2023-01-09T00:46:42.064Z,33.40
2023-01-09T00:49:13.313Z,32.87
2023-01-09T00:51:42.577Z,31.23
2023-01-09T00:54:12.037Z,31.87
2023-01-09T00:56:39.948Z,34.60
2023-01-09T00:59:08.515Z,31.63
2023-01-09T01:01:36.198Z,36.07
2023-01-09T01:04:24.348Z,29.17
2023-01-09T01:07:10.600Z,32.40
2023-01-09T01:09:38.256Z,31.93
2023-01-09T01:12:07.105Z,32.73
2023-01-09T01:14:35.158Z,32.20
2023-01-09T01:17:02.853Z,32.60
2023-01-09T01:19:30.719Z,29.73
2023-01-09T01:21:59.704Z,31.20
2023-01-09T01:24:27.241Z,27.67
2023-01-09T01:26:54.835Z,32.43
2023-01-09T01:29:22.471Z,36.13
2023-01-09T01:31:49.989Z,33.40
2023-01-09T01:34:17.520Z,30.80
2023-01-09T01:36:45.050Z,39.53
2023-01-09T01:39:13.911Z,35.83
2023-01-09T01:41:41.510Z,34.40
2023-01-09T01:44:47.590Z,34.00
2023-01-09T01:47:18.682Z,38.57
2023-01-09T01:49:46.737Z,34.70
2023-01-09T01:52:14.690Z,34.63
2023-01-09T01:54:42.936Z,31.43
2023-01-09T01:57:10.856Z,32.73
2023-01-09T01:59:41.096Z,29.77
2023-01-09T02:02:10.095Z,31.40
2023-01-09T02:04:40.376Z,35.53
2023-01-09T02:07:10.651Z,36.80
2023-01-09T02:09:40.719Z,35.23
2023-01-09T02:12:16.583Z,35.97
2023-01-09T02:14:45.175Z,32.83
2023-01-09T02:17:25.709Z,35.20
2023-01-09T02:20:31.483Z,37.07
2023-01-09T02:23:11.150Z,33.00
2023-01-09T02:26:02.886Z,37.37
2023-01-09T02:29:00.198Z,36.67
2023-01-09T02:31:37.759Z,34.87
2023-01-09T02:34:13.279Z,39.40
2023-01-09T02:36:49.759Z,38.87
2023-01-09T02:39:26.934Z,34.93
2023-01-09T02:41:59.383Z,41.50
2023-01-09T02:44:29.238Z,38.17
2023-01-09T02:47:07.680Z,39.70
2023-01-09T02:49:37.569Z,39.73
2023-01-09T02:52:21.276Z,44.77
2023-01-09T02:54:57.850Z,40.67
2023-01-09T02:57:41.460Z,42.07
2023-01-09T03:00:17.156Z,43.67
2023-01-09T03:02:50.754Z,47.20
2023-01-09T03:05:26.872Z,41.07
2023-01-09T03:08:00.458Z,41.47
2023-01-09T03:10:35.635Z,43.03
2023-01-09T03:13:04.497Z,37.43
2023-01-09T03:15:35.813Z,41.23
2023-01-09T03:18:06.675Z,40.17
2023-01-09T03:20:34.859Z,35.43
2023-01-09T03:23:05.766Z,38.73
2023-01-09T03:25:33.897Z,35.87
2023-01-09T03:28:03.733Z,35.07
2023-01-09T03:30:34.019Z,34.53
2023-01-09T03:33:01.952Z,34.47
2023-01-09T03:35:30.802Z,33.23
2023-01-09T03:37:59.000Z,31.93
2023-01-09T03:40:26.563Z,35.30
2023-01-09T03:42:54.084Z,37.33
2023-01-09T03:45:21.587Z,34.57
2023-01-09T03:47:49.112Z,38.47
2023-01-09T03:50:16.989Z,39.83
2023-01-09T03:52:45.864Z,33.50
2023-01-09T03:55:15.445Z,37.17
2023-01-09T03:57:43.187Z,42.13
2023-01-09T04:00:12.271Z,35.83
2023-01-09T04:02:39.814Z,39.40
2023-01-09T04:05:08.729Z,37.00
2023-01-09T04:07:36.234Z,41.33
2023-01-09T04:10:05.896Z,38.03
2023-01-09T04:12:33.400Z,35.27
2023-01-09T04:15:00.889Z,38.63
2023-01-09T04:17:28.419Z,34.10
2023-01-09T04:19:55.935Z,37.00
2023-01-09T04:22:23.638Z,37.50
2023-01-09T04:24:51.128Z,35.50
2023-01-09T04:27:19.978Z,35.67
2023-01-09T04:29:47.707Z,35.00
2023-01-09T04:32:15.216Z,36.33
2023-01-09T04:34:42.720Z,41.00
2023-01-09T04:37:10.331Z,35.33
2023-01-09T04:39:38.255Z,40.90
2023-01-09T04:42:05.832Z,37.30
2023-01-09T04:44:34.676Z,38.03
2023-01-09T04:47:02.328Z,34.83
2023-01-09T04:49:29.874Z,34.77
2023-01-09T04:51:57.692Z,36.40
2023-01-09T04:54:25.423Z,35.70
2023-01-09T04:56:52.919Z,37.93
2023-01-09T04:59:20.468Z,36.90
2023-01-09T05:01:49.507Z,36.97
2023-01-09T05:04:17.241Z,35.67
2023-01-09T05:06:44.774Z,38.27
2023-01-09T05:09:12.270Z,40.77
2023-01-09T05:11:39.780Z,39.53
2023-01-09T05:14:07.369Z,43.87
2023-01-09T05:16:35.093Z,51.67
2023-01-09T05:19:03.962Z,50.17
2023-01-09T05:21:31.611Z,56.47
2023-01-09T05:23:59.111Z,55.97
2023-01-09T05:26:26.631Z,55.70
2023-01-09T05:28:56.173Z,60.03
2023-01-09T05:31:24.126Z,67.40
2023-01-09T05:33:51.816Z,62.73
2023-01-09T05:36:20.848Z,59.43
2023-01-09T05:38:48.347Z,57.73
2023-01-09T05:41:15.857Z,52.43
2023-01-09T05:43:43.380Z,49.70
2023-01-09T05:46:10.936Z,46.97
2023-01-09T05:48:38.799Z,50.23
2023-01-09T05:51:06.630Z,50.57
2023-01-09T05:53:35.437Z,56.90
2023-01-09T05:56:03.004Z,58.87
2023-01-09T05:58:30.474Z,58.77
2023-01-09T06:00:59.582Z,58.60
2023-01-09T06:03:27.111Z,61.43
2023-01-09T06:05:54.587Z,69.40
2023-01-09T06:08:22.095Z,65.20
2023-01-09T06:10:51.033Z,66.23
2023-01-09T06:13:18.529Z,56.67
2023-01-09T06:15:48.161Z,63.30
2023-01-09T06:18:15.859Z,61.07
2023-01-09T06:20:45.091Z,62.67
2023-01-09T06:23:13.655Z,63.47
2023-01-09T06:25:41.371Z,65.93
2023-01-09T06:28:10.227Z,63.60
2023-01-09T06:30:37.698Z,65.60
2023-01-09T06:33:05.191Z,82.30
2023-01-09T06:35:32.663Z,81.27
2023-01-09T06:38:01.389Z,79.90
2023-01-09T06:40:28.914Z,96.83
2023-01-09T06:42:56.676Z,96.50
2023-01-09T06:45:25.820Z,101.57
2023-01-09T06:47:53.598Z,89.30
2023-01-09T06:50:21.945Z,89.60
2023-01-09T06:52:49.463Z,88.83
2023-01-09T06:55:17.776Z,85.47
2023-01-09T06:57:45.592Z,80.87
2023-01-09T07:00:14.235Z,73.33
2023-01-09T07:02:43.334Z,58.23
2023-01-09T07:05:12.071Z,64.07
2023-01-09T07:07:39.973Z,57.43
2023-01-09T07:10:09.055Z,47.10
2023-01-09T07:12:36.963Z,49.27
2023-01-09T07:15:05.037Z,54.13
2023-01-09T07:17:32.702Z,59.47
2023-01-09T07:20:01.728Z,59.40
2023-01-09T07:22:29.300Z,60.83
2023-01-09T07:24:57.127Z,61.63
2023-01-09T07:27:24.670Z,46.47
2023-01-09T07:29:53.514Z,21.87
2023-01-09T07:32:21.108Z,44.83
2023-01-09T07:34:49.126Z,27.27
2023-01-09T07:37:18.095Z,43.50
2023-01-09T07:39:45.651Z,37.90
2023-01-09T07:42:13.337Z,44.23
2023-01-09T07:44:40.925Z,35.40
2023-01-09T07:47:08.425Z,43.43
2023-01-09T07:49:35.914Z,21.00
2023-01-09T07:52:04.984Z,8.80
2023-01-09T07:54:33.837Z,11.90
2023-01-09T07:57:01.341Z,7.50
2023-01-09T07:59:29.553Z,5.80
2023-01-09T08:01:57.354Z,5.60
2023-01-09T08:04:25.110Z,5.13
2023-01-09T08:06:52.594Z,6.43
2023-01-09T08:09:20.063Z,3.73
2023-01-09T08:11:48.899Z,18.97
2023-01-09T08:14:16.387Z,3.93
2023-01-09T08:16:43.838Z,3.93
2023-01-09T08:19:12.128Z,2.70
2023-01-09T08:21:39.776Z,6.57
2023-01-09T08:24:07.762Z,2.63
2023-01-09T08:26:35.271Z,2.47
2023-01-09T08:29:04.094Z,3.43
2023-01-09T08:31:31.643Z,4.47
2023-01-09T08:33:59.180Z,3.00
2023-01-09T08:36:26.725Z,2.40
2023-01-09T08:38:54.222Z,3.50
2023-01-09T08:41:39.269Z,3.50
2023-01-09T08:44:25.909Z,3.67
2023-01-09T08:47:09.172Z,4.17
2023-01-09T08:49:38.014Z,3.67
2023-01-09T08:52:07.200Z,3.83
2023-01-09T08:54:36.732Z,3.60
2023-01-09T08:57:04.233Z,3.23
2023-01-09T08:59:33.296Z,4.40
2023-01-09T09:02:01.167Z,4.63
2023-01-09T09:04:28.874Z,4.10
2023-01-09T09:06:56.356Z,5.03
2023-01-09T09:09:25.144Z,5.00
2023-01-09T09:11:52.719Z,4.03
2023-01-09T09:14:38.090Z,3.87
2023-01-09T09:17:06.937Z,3.83
2023-01-09T09:19:34.455Z,4.57
2023-01-09T09:22:01.934Z,5.53
2023-01-09T09:24:29.419Z,5.23
2023-01-09T09:26:56.914Z,4.67
2023-01-09T09:29:24.394Z,5.43
2023-01-09T09:31:52.320Z,6.10
2023-01-09T09:34:21.211Z,4.93
2023-01-09T09:36:48.728Z,4.57
2023-01-09T09:39:16.224Z,5.43
2023-01-09T09:42:20.687Z,5.57
2023-01-09T09:45:03.504Z,4.90
2023-01-09T09:47:45.751Z,6.27
2023-01-09T09:50:29.702Z,5.30
2023-01-09T09:53:04.494Z,7.37
2023-01-09T09:55:35.034Z,4.47
2023-01-09T09:58:08.099Z,4.77
2023-01-09T10:00:35.871Z,5.40
2023-01-09T10:03:06.933Z,6.20
2023-01-09T10:05:38.797Z,6.77
2023-01-09T10:08:16.099Z,5.50
2023-01-09T10:10:50.285Z,4.73
2023-01-09T10:13:37.607Z,6.93
2023-01-09T10:16:15.137Z,5.30
2023-01-09T10:18:53.327Z,5.50
2023-01-09T10:21:27.976Z,6.53
2023-01-09T10:24:06.956Z,6.23
2023-01-09T10:26:43.150Z,5.80
2023-01-09T10:29:28.291Z,5.87
2023-01-09T10:32:12.403Z,7.20
2023-01-09T10:34:51.145Z,7.30
2023-01-09T10:37:22.434Z,6.10
2023-01-09T10:39:54.651Z,5.97
2023-01-09T10:42:30.617Z,7.73
2023-01-09T10:45:03.871Z,8.30
2023-01-09T10:47:34.204Z,4.60
2023-01-09T10:50:04.246Z,4.33
2023-01-09T10:52:39.057Z,5.30
2023-01-09T10:55:19.201Z,5.13
2023-01-09T10:57:50.051Z,4.93
2023-01-09T11:00:23.097Z,3.43
2023-01-09T11:02:50.986Z,7.67
2023-01-09T11:05:21.736Z,3.03
2023-01-09T11:07:54.432Z,5.03
2023-01-09T11:10:24.787Z,6.00
2023-01-09T11:12:52.272Z,4.13
2023-01-09T11:15:30.002Z,4.47
2023-01-09T11:18:21.037Z,4.40
2023-01-09T11:20:48.891Z,3.90
2023-01-09T11:23:30.594Z,3.23
2023-01-09T11:26:00.207Z,2.73
2023-01-09T11:28:28.663Z,3.07
2023-01-09T11:30:59.781Z,3.43
2023-01-09T11:33:29.581Z,2.73
2023-01-09T11:36:01.574Z,2.60
2023-01-09T11:38:31.297Z,2.33
2023-01-09T11:41:01.529Z,4.67
2023-01-09T11:43:33.722Z,3.30
2023-01-09T11:46:03.939Z,3.27
2023-01-09T11:48:37.712Z,2.97
2023-01-09T11:51:17.070Z,4.43
2023-01-09T11:53:54.612Z,2.93
2023-01-09T11:56:22.135Z,3.47
2023-01-09T11:58:49.675Z,2.17
2023-01-09T12:01:31.564Z,3.47
2023-01-09T12:04:18.247Z,2.67
2023-01-09T12:07:00.469Z,2.90
2023-01-09T12:09:41.329Z,3.20
2023-01-09T12:12:18.765Z,4.53
2023-01-09T12:14:59.846Z,5.00
2023-01-09T12:17:48.365Z,2.90
2023-01-09T12:20:30.303Z,3.63
2023-01-09T12:23:14.588Z,2.57
2023-01-09T12:25:51.211Z,2.80
2023-01-09T12:28:39.926Z,4.33
2023-01-09T12:31:21.451Z,3.63
2023-01-09T12:33:59.863Z,2.90
2023-01-09T12:36:36.324Z,2.90
2023-01-09T12:39:17.619Z,3.53
2023-01-09T12:42:13.176Z,3.47
2023-01-09T12:44:51.698Z,4.87
2023-01-09T12:47:45.126Z,2.40
2023-01-09T12:50:45.747Z,3.20
2023-01-09T12:53:20.597Z,3.57
2023-01-09T12:55:52.151Z,3.60
2023-01-09T12:58:38.513Z,2.40
2023-01-09T13:01:14.439Z,2.37
2023-01-09T13:03:47.462Z,3.10
2023-01-09T13:06:18.754Z,4.77
2023-01-09T13:08:52.147Z,6.00
2023-01-09T13:11:25.553Z,4.60
2023-01-09T13:13:59.402Z,5.20
2023-01-09T13:16:31.776Z,5.13
2023-01-09T13:19:04.894Z,5.43
2023-01-09T13:21:33.003Z,6.13
2023-01-09T13:24:04.914Z,5.97
2023-01-09T13:26:38.865Z,6.87
2023-01-09T13:29:13.845Z,5.10
2023-01-09T13:32:01.897Z,5.77
2023-01-09T13:34:32.220Z,5.40
2023-01-09T13:37:00.602Z,5.37
2023-01-09T13:39:29.746Z,5.97
2023-01-09T13:42:17.076Z,5.87
2023-01-09T13:44:48.100Z,6.10
2023-01-09T13:47:19.922Z,4.50
2023-01-09T13:50:02.382Z,5.07
2023-01-09T13:52:33.978Z,3.17
2023-01-09T13:55:25.145Z,3.23
2023-01-09T13:58:25.282Z,2.67
2023-01-09T14:00:57.508Z,3.47
2023-01-09T14:03:32.662Z,3.00
2023-01-09T14:06:18.858Z,3.03
2023-01-09T14:08:49.150Z,2.73
2023-01-09T14:11:22.107Z,4.97
2023-01-09T14:14:00.153Z,4.23
2023-01-09T14:16:31.246Z,3.27
2023-01-09T14:19:04.972Z,3.23
2023-01-09T14:21:46.613Z,5.30
2023-01-09T14:24:22.588Z,4.07
2023-01-09T14:26:55.196Z,4.20
2023-01-09T14:29:41.565Z,5.43
2023-01-09T14:32:54.148Z,5.80
2023-01-09T14:35:41.532Z,6.97
2023-01-09T14:38:23.301Z,4.40
2023-01-09T14:40:56.849Z,3.60
2023-01-09T14:43:39.113Z,3.60
2023-01-09T14:46:13.071Z,3.70
2023-01-09T14:48:52.746Z,2.40
2023-01-09T14:51:23.241Z,2.67
2023-01-09T14:53:52.908Z,3.23
2023-01-09T14:56:27.589Z,4.23
2023-01-09T14:59:12.919Z,6.13
2023-01-09T15:01:44.098Z,6.90
2023-01-09T15:04:23.442Z,6.93
2023-01-09T15:06:52.378Z,7.67
2023-01-09T15:09:25.510Z,7.33
2023-01-09T15:11:54.230Z,6.93
2023-01-09T15:14:30.816Z,6.00
2023-01-09T15:17:00.095Z,4.63
2023-01-09T15:19:28.236Z,4.90
2023-01-09T15:22:02.595Z,4.20
2023-01-09T15:24:32.407Z,5.50
2023-01-09T15:27:02.077Z,5.43
2023-01-09T15:29:30.208Z,5.27
2023-01-09T15:32:02.744Z,6.60
2023-01-09T15:34:30.586Z,7.30
2023-01-09T15:36:58.287Z,5.83
2023-01-09T15:39:31.364Z,7.27
2023-01-09T15:42:17.600Z,6.43
2023-01-09T15:44:48.262Z,6.03
2023-01-09T15:47:18.521Z,7.50
2023-01-09T15:49:47.031Z,6.00
2023-01-09T15:52:16.919Z,6.47
2023-01-09T15:54:46.997Z,6.33
2023-01-09T15:57:35.708Z,8.33
2023-01-09T16:00:45.966Z,6.70
2023-01-09T16:03:21.115Z,6.87
2023-01-09T16:05:52.802Z,5.17
2023-01-09T16:08:24.469Z,6.20
2023-01-09T16:10:55.328Z,5.27
2023-01-09T16:13:25.285Z,4.67
2023-01-09T16:15:53.897Z,4.47
2023-01-09T16:18:24.341Z,5.63
2023-01-09T16:21:02.636Z,6.23
2023-01-09T16:23:32.285Z,6.83
2023-01-09T16:26:12.664Z,6.23
2023-01-09T16:28:42.650Z,8.97
2023-01-09T16:31:23.458Z,8.73
2023-01-09T16:33:57.263Z,6.47
2023-01-09T16:36:24.831Z,6.40
2023-01-09T16:38:53.695Z,8.73
2023-01-09T16:41:41.101Z,7.17
2023-01-09T16:44:10.570Z,5.63
2023-01-09T16:46:40.380Z,5.27
2023-01-09T16:49:17.797Z,8.37
2023-01-09T16:51:45.449Z,6.60
2023-01-09T16:54:13.134Z,6.47
2023-01-09T16:56:44.674Z,6.20
2023-01-09T16:59:14.819Z,5.03
2023-01-09T17:01:43.422Z,4.87
2023-01-09T17:04:12.918Z,5.23
2023-01-09T17:06:41.995Z,3.47
2023-01-09T17:09:12.517Z,3.17
2023-01-09T17:11:40.030Z,3.10
2023-01-09T17:14:10.831Z,3.43
2023-01-09T17:16:38.480Z,4.50
2023-01-09T17:19:06.195Z,3.53
2023-01-09T17:21:33.705Z,2.40
2023-01-09T17:24:19.025Z,3.73
2023-01-09T17:27:07.602Z,3.80
2023-01-09T17:29:36.726Z,4.87
2023-01-09T17:32:04.784Z,5.63
2023-01-09T17:34:33.662Z,6.30
2023-01-09T17:37:03.085Z,4.80
2023-01-09T17:39:31.787Z,4.40
2023-01-09T17:42:01.819Z,2.93
2023-01-09T17:44:29.546Z,4.50
2023-01-09T17:46:58.351Z,4.63
2023-01-09T17:49:27.157Z,2.80
2023-01-09T17:51:54.818Z,2.30
2023-01-09T17:54:22.316Z,2.30
2023-01-09T17:56:52.192Z,1.90
2023-01-09T17:59:19.942Z,2.80
2023-01-09T18:01:47.622Z,2.80
2023-01-09T18:04:16.652Z,3.10
2023-01-09T18:06:44.272Z,3.60
2023-01-09T18:09:17.063Z,3.50
2023-01-09T18:11:45.386Z,4.43
2023-01-09T18:14:13.955Z,4.50
2023-01-09T18:16:41.810Z,5.10
2023-01-09T18:19:10.153Z,5.20
2023-01-09T18:21:38.985Z,5.07
2023-01-09T18:24:07.082Z,5.27
2023-01-09T18:26:34.586Z,5.93
2023-01-09T18:29:02.260Z,5.23
2023-01-09T18:31:30.904Z,7.83
2023-01-09T18:34:02.289Z,5.63
2023-01-09T18:36:30.477Z,5.73
2023-01-09T18:39:01.166Z,5.03
2023-01-09T18:41:29.344Z,5.00
2023-01-09T18:43:58.570Z,4.53
2023-01-09T18:46:30.599Z,5.17
2023-01-09T18:49:00.644Z,6.50
2023-01-09T18:51:29.279Z,4.57
2023-01-09T18:53:57.223Z,4.93
2023-01-09T18:56:26.191Z,5.07
2023-01-09T18:58:57.233Z,3.87
2023-01-09T19:01:25.661Z,4.90
2023-01-09T19:03:53.403Z,4.20
2023-01-09T19:06:21.093Z,5.87
2023-01-09T19:08:48.761Z,4.73
2023-01-09T19:11:16.665Z,4.30
2023-01-09T19:13:45.570Z,4.23
2023-01-09T19:16:13.162Z,4.07
2023-01-09T19:18:43.323Z,4.60
2023-01-09T19:21:12.316Z,3.30
2023-01-09T19:23:40.699Z,4.27
2023-01-09T19:26:09.730Z,4.40
2023-01-09T19:28:38.234Z,4.17
2023-01-09T19:31:07.204Z,4.57
2023-01-09T19:33:34.687Z,6.07
2023-01-09T19:36:02.161Z,3.90
2023-01-09T19:38:29.736Z,4.23
2023-01-09T19:40:57.241Z,3.57
2023-01-09T19:43:27.777Z,4.03
2023-01-09T19:45:56.269Z,3.97
2023-01-09T19:48:26.992Z,3.87
2023-01-09T19:51:01.145Z,4.63
2023-01-09T19:53:30.093Z,4.10
2023-01-09T19:56:07.910Z,5.20
2023-01-09T19:58:35.461Z,4.70
2023-01-09T20:01:11.907Z,4.57
2023-01-09T20:03:42.582Z,2.93
2023-01-09T20:06:13.913Z,2.93
2023-01-09T20:08:41.436Z,3.47
2023-01-09T20:11:09.819Z,3.97
2023-01-09T20:13:37.737Z,3.30
2023-01-09T20:16:05.927Z,3.53
2023-01-09T20:18:35.419Z,3.50
2023-01-09T20:21:04.614Z,3.00
2023-01-09T20:23:33.324Z,4.73
2023-01-09T20:26:01.540Z,4.57
2023-01-09T20:28:29.140Z,4.60
2023-01-09T20:30:56.666Z,5.00
2023-01-09T20:33:24.321Z,4.43
2023-01-09T20:35:51.936Z,4.97
2023-01-09T20:38:20.785Z,4.47
2023-01-09T20:40:48.315Z,4.43
2023-01-09T20:43:15.800Z,4.90
2023-01-09T20:45:43.333Z,4.37
2023-01-09T20:48:11.118Z,3.87
2023-01-09T20:50:38.930Z,3.60
2023-01-09T20:53:07.941Z,4.47
2023-01-09T20:55:36.953Z,3.60
2023-01-09T20:58:04.435Z,4.93
2023-01-09T21:00:32.407Z,5.67
2023-01-09T21:03:00.036Z,5.30
2023-01-09T21:05:27.677Z,4.73
2023-01-09T21:07:55.191Z,4.70
2023-01-09T21:10:22.742Z,5.77
2023-01-09T21:12:51.556Z,7.00
2023-01-09T21:15:21.322Z,5.60
2023-01-09T21:17:48.831Z,6.47
2023-01-09T21:20:16.660Z,6.97
2023-01-09T21:22:44.368Z,7.13
2023-01-09T21:25:11.863Z,5.60
2023-01-09T21:27:42.414Z,4.73
2023-01-09T21:30:12.306Z,5.33
2023-01-09T21:32:40.017Z,4.60
2023-01-09T21:35:08.036Z,4.80
2023-01-09T21:37:37.834Z,4.20
2023-01-09T21:40:08.577Z,4.90
2023-01-09T21:42:53.643Z,5.00
2023-01-09T21:45:40.071Z,4.47
2023-01-09T21:48:08.467Z,4.80
2023-01-09T21:50:36.189Z,6.27
2023-01-09T21:53:04.216Z,5.03
2023-01-09T21:55:32.556Z,4.47
2023-01-09T21:58:01.772Z,4.70
2023-01-09T22:00:30.827Z,4.47
2023-01-09T22:02:58.973Z,4.10
2023-01-09T22:05:27.256Z,3.90
2023-01-09T22:07:55.979Z,3.70
2023-01-09T22:10:23.577Z,3.40
2023-01-09T22:13:10.260Z,4.47
2023-01-09T22:15:39.138Z,3.73
2023-01-09T22:18:06.702Z,4.83
2023-01-09T22:20:34.204Z,3.50
2023-01-09T22:23:01.713Z,3.37
2023-01-09T22:25:29.209Z,3.50
2023-01-09T22:27:56.713Z,3.53
2023-01-09T22:30:24.213Z,3.20
2023-01-09T22:32:53.015Z,3.47
2023-01-09T22:35:20.546Z,3.80
2023-01-09T22:37:48.080Z,3.87
2023-01-09T22:40:20.553Z,4.18
2023-01-09T22:42:48.060Z,3.60
2023-01-09T22:45:15.722Z,3.63
2023-01-09T22:47:43.228Z,4.20
2023-01-09T22:50:12.732Z,3.40
2023-01-09T22:52:40.305Z,4.70
2023-01-09T22:55:09.319Z,4.80
2023-01-09T22:57:37.072Z,4.73
2023-01-09T23:00:06.266Z,5.07
2023-01-09T23:02:33.802Z,4.67
2023-01-09T23:05:01.421Z,5.17
2023-01-09T23:07:30.227Z,4.40
2023-01-09T23:10:00.431Z,4.47
2023-01-09T23:12:27.958Z,5.00
2023-01-09T23:14:55.429Z,8.13
2023-01-09T23:17:22.896Z,5.57
2023-01-09T23:19:50.518Z,5.47
2023-01-09T23:22:18.008Z,7.00
2023-01-09T23:24:46.891Z,4.97
2023-01-09T23:27:14.368Z,4.50
2023-01-09T23:29:41.835Z,5.17
2023-01-09T23:32:09.370Z,3.87
2023-01-09T23:34:36.957Z,4.50
2023-01-09T23:37:08.796Z,8.40
2023-01-09T23:39:36.556Z,6.27
2023-01-09T23:42:22.707Z,5.43
2023-01-09T23:44:50.193Z,5.47
2023-01-09T23:47:17.642Z,4.60
2023-01-09T23:49:45.196Z,7.87
2023-01-09T23:52:12.663Z,7.00
2023-01-09T23:54:40.108Z,7.33
2023-01-09T23:57:08.900Z,7.40
2023-01-09T23:59:36.383Z,9.10
